Time;durP1;ratioP1;P1;durP2;ratioP2;P2;SDS_P1;SDS_P2;PMS_P1;PMS_P2;Temp;Humidity;BMP_temperature;BMP_pressure;BME280_temperature;BME280_humidity;BME280_pressure;Samples;Min_cycle;Max_cycle;Signal;HPM_P1;HPM_P2
2023/05/17 00:02:16;;;;;;;3.80;1.83;;;;;;;13.40;50.40;100840.25;5035215;28;20462;-74
2023/05/17 00:04:43;;;;;;;4.35;2.00;;;;;;;13.36;50.77;100839.13;5035249;28;20478;-74
2023/05/17 00:07:09;;;;;;;5.30;1.88;;;;;;;13.44;50.68;100832.38;5032953;28;20403;-74
2023/05/17 00:09:34;;;;;;;4.33;1.37;;;;;;;13.45;50.61;100837.59;5035237;28;20453;-74
2023/05/17 00:12:00;;;;;;;2.70;1.57;;;;;;;13.42;50.65;100834.56;5035008;28;20490;-74
2023/05/17 00:14:25;;;;;;;2.27;1.40;;;;;;;13.34;51.13;100832.28;5034997;28;20422;-74
2023/05/17 00:16:51;;;;;;;5.30;1.67;;;;;;;13.29;51.07;100833.03;5030579;28;20503;-74
2023/05/17 00:19:16;;;;;;;3.55;1.40;;;;;;;13.28;51.38;100830.56;5035018;28;20754;-74
2023/05/17 00:21:42;;;;;;;6.17;1.70;;;;;;;13.34;51.35;100837.72;5029857;28;20409;-74
2023/05/17 00:24:08;;;;;;;2.80;1.20;;;;;;;13.39;51.07;100848.69;5033702;28;20482;-74
2023/05/17 00:26:33;;;;;;;3.80;1.38;;;;;;;13.39;51.35;100849.50;5033751;28;20395;-74
2023/05/17 00:28:58;;;;;;;2.07;1.20;;;;;;;13.33;51.42;100850.53;5034819;28;20826;-74
2023/05/17 00:31:23;;;;;;;2.83;1.50;;;;;;;13.31;51.48;100851.84;5034044;28;20395;-74
2023/05/17 00:33:49;;;;;;;2.93;1.17;;;;;;;13.25;51.68;100856.41;5032945;28;20410;-74
2023/05/17 00:36:14;;;;;;;4.23;1.30;;;;;;;13.22;51.87;100859.63;5034731;28;20391;-74
2023/05/17 00:38:39;;;;;;;2.77;1.20;;;;;;;13.17;52.26;100866.91;5033351;28;20414;-74
2023/05/17 00:41:05;;;;;;;4.47;1.60;;;;;;;13.21;52.35;100857.16;5034722;28;20411;-74
2023/05/17 00:43:30;;;;;;;6.33;1.50;;;;;;;13.29;52.03;100864.88;5032331;28;20403;-74
2023/05/17 00:45:55;;;;;;;4.67;1.20;;;;;;;13.28;52.36;100861.34;5034516;28;20399;-74
2023/05/17 00:48:24;;;;;;;3.83;1.40;;;;;;;13.16;52.43;100855.19;5034233;28;20398;-75
2023/05/17 00:50:49;;;;;;;4.45;1.60;;;;;;;13.11;52.58;100867.91;5034224;28;20457;-74
2023/05/17 00:53:15;;;;;;;4.43;1.77;;;;;;;13.12;52.76;100867.66;5033377;28;20897;-74
2023/05/17 00:55:44;;;;;;;5.00;1.50;;;;;;;13.18;52.53;100873.97;5065968;28;20778;-74
2023/05/17 00:58:10;;;;;;;2.45;1.30;;;;;;;13.17;52.38;100870.44;5034005;28;20928;-74
2023/05/17 01:00:36;;;;;;;2.50;1.17;;;;;;;13.16;52.54;100870.69;5034187;28;20427;-74
2023/05/17 01:03:02;;;;;;;1.88;1.48;;;;;;;13.14;52.92;100875.59;5023936;28;20435;-74
2023/05/17 01:05:27;;;;;;;1.67;1.40;;;;;;;13.12;52.95;100866.81;5021414;28;20494;-74
2023/05/17 01:07:53;;;;;;;2.73;1.43;;;;;;;13.10;53.34;100869.81;5034013;28;20392;-74
2023/05/17 01:10:18;;;;;;;3.22;1.40;;;;;;;13.13;53.23;100876.66;5032722;28;20390;-74
2023/05/17 01:13:04;;;;;;;6.70;1.60;;;;;;;13.02;53.70;100876.47;5028252;28;20407;-74
2023/05/17 01:15:33;;;;;;;4.10;1.53;;;;;;;13.04;53.56;100873.47;5033835;28;20434;-74
2023/05/17 01:18:07;;;;;;;2.27;1.40;;;;;;;13.02;53.36;100875.66;5033578;28;20407;-74
2023/05/17 01:20:36;;;;;;;3.50;1.70;;;;;;;12.99;53.84;100881.59;5033984;28;20391;-74
2023/05/17 01:23:23;;;;;;;3.42;1.60;;;;;;;12.90;54.05;100881.22;5032419;28;20500;-74
2023/05/17 01:25:56;;;;;;;2.63;1.40;;;;;;;12.94;54.04;100884.25;5032353;28;20403;-74
2023/05/17 01:28:22;;;;;;;5.90;1.90;;;;;;;12.92;53.91;100889.09;5033828;28;20391;-74
2023/05/17 01:30:50;;;;;;;3.30;1.50;;;;;;;12.90;53.89;100889.38;5032319;28;20829;-74
2023/05/17 01:33:18;;;;;;;4.07;1.65;;;;;;;12.84;54.14;100889.53;5021436;28;20411;-74
2023/05/17 01:35:43;;;;;;;3.42;1.40;;;;;;;12.85;54.25;100893.88;5033396;28;20902;-74
2023/05/17 01:38:09;;;;;;;3.80;1.50;;;;;;;12.88;53.99;100896.09;5033243;28;20473;-74
2023/05/17 01:40:37;;;;;;;6.40;1.67;;;;;;;12.86;54.39;100900.97;5033600;28;20470;-74
2023/05/17 01:43:34;;;;;;;5.00;1.55;;;;;;;12.87;54.28;100905.34;5031569;28;20419;-74
2023/05/17 01:46:16;;;;;;;3.80;1.50;;;;;;;12.84;54.48;100914.81;5026370;28;20449;-74
2023/05/17 01:48:54;;;;;;;3.23;1.63;;;;;;;12.81;54.87;100909.88;5033184;28;20415;-74
2023/05/17 01:51:27;;;;;;;7.70;1.80;;;;;;;12.78;55.04;100914.97;5032014;28;20403;-74
2023/05/17 01:54:00;;;;;;;5.68;1.58;;;;;;;12.76;55.10;100914.41;5032250;28;20407;-74
2023/05/17 01:56:31;;;;;;;4.53;1.63;;;;;;;12.75;55.31;100915.47;5033168;28;20392;-74
2023/05/17 01:58:58;;;;;;;5.15;1.73;;;;;;;12.74;55.26;100906.53;5031226;28;20409;-74
2023/05/17 02:01:25;;;;;;;3.20;1.38;;;;;;;12.73;55.71;100914.91;5032839;28;20395;-74
2023/05/17 02:03:51;;;;;;;3.83;1.27;;;;;;;12.76;55.44;100904.38;5032060;28;20494;-74
2023/05/17 02:06:16;;;;;;;3.30;1.40;;;;;;;12.75;55.62;100919.03;5031621;28;20750;-74
2023/05/17 02:08:42;;;;;;;2.75;1.60;;;;;;;12.77;55.85;100913.34;5032929;28;20449;-74
2023/05/17 02:11:07;;;;;;;2.93;1.90;;;;;;;12.75;55.90;100918.19;5032829;28;20395;-74
2023/05/17 02:13:33;;;;;;;5.10;1.33;;;;;;;12.63;55.86;100917.47;5028024;28;20415;-74
2023/05/17 02:16:02;;;;;;;4.50;1.40;;;;;;;12.54;56.28;100927.13;5032629;28;20406;-74
2023/05/17 02:18:28;;;;;;;4.38;1.20;;;;;;;12.43;56.29;100924.22;5032764;28;20486;-74
2023/05/17 02:20:53;;;;;;;2.28;1.23;;;;;;;12.36;56.68;100922.72;5026367;28;20804;-74
2023/05/17 02:23:19;;;;;;;3.03;1.70;;;;;;;12.31;56.92;100917.22;5023939;28;20430;-74
2023/05/17 02:25:44;;;;;;;4.07;1.37;;;;;;;12.25;57.04;100929.06;5031304;28;20401;-74
2023/05/17 02:28:09;;;;;;;2.60;1.30;;;;;;;12.18;57.45;100923.78;5032304;28;20399;-74
2023/05/17 02:30:39;;;;;;;2.77;1.50;;;;;;;12.09;57.84;100919.78;5032661;28;20750;-74
2023/05/17 02:33:05;;;;;;;2.70;1.38;;;;;;;12.08;57.67;100930.91;5030672;28;20502;-74
2023/05/17 02:35:30;;;;;;;2.33;1.10;;;;;;;12.01;57.60;100917.47;5030147;28;20839;-74
2023/05/17 02:37:55;;;;;;;4.18;1.20;;;;;;;12.01;57.82;100930.22;5030467;28;20402;-74
2023/05/17 02:40:20;;;;;;;4.80;1.33;;;;;;;12.02;57.53;100929.97;5032338;28;20920;-74
2023/05/17 02:42:46;;;;;;;2.33;1.20;;;;;;;12.03;57.68;100928.09;5004133;28;20417;-74
2023/05/17 02:45:11;;;;;;;3.47;1.37;;;;;;;12.02;57.50;100935.41;5026888;28;20383;-74
2023/05/17 02:47:36;;;;;;;3.37;1.63;;;;;;;12.03;57.29;100936.22;5030786;28;20430;-73
2023/05/17 02:50:02;;;;;;;6.85;1.45;;;;;;;12.04;57.60;100935.19;5031988;28;20465;-74
2023/05/17 02:52:27;;;;;;;4.07;0.80;;;;;;;12.01;57.54;100949.25;5029988;28;20414;-74
2023/05/17 02:54:52;;;;;;;4.83;1.30;;;;;;;11.97;57.77;100938.03;5032012;28;20568;-74
2023/05/17 02:57:18;;;;;;;4.83;1.10;;;;;;;11.94;57.68;100941.25;5030804;28;20406;-74
2023/05/17 02:59:43;;;;;;;2.70;1.10;;;;;;;11.92;58.01;100940.69;5026726;28;20480;-74
2023/05/17 03:02:08;;;;;;;2.37;1.00;;;;;;;11.91;58.33;100944.44;5019515;28;20414;-74
2023/05/17 03:04:33;;;;;;;6.80;1.77;;;;;;;11.89;58.25;100938.41;5063075;28;20395;-74
2023/05/17 03:06:59;;;;;;;3.90;1.33;;;;;;;11.87;58.37;100946.00;5030475;28;20398;-74
2023/05/17 03:09:24;;;;;;;10.60;1.40;;;;;;;11.88;58.63;100947.66;5030655;28;20498;-75
2023/05/17 03:11:50;;;;;;;2.77;1.07;;;;;;;11.86;58.50;100941.63;5030037;28;20379;-74
2023/05/17 03:14:15;;;;;;;2.63;1.20;;;;;;;11.85;58.47;100934.56;5030014;28;20442;-74
2023/05/17 03:16:40;;;;;;;1.90;1.27;;;;;;;11.82;58.77;100940.47;5030415;28;20398;-74
2023/05/17 03:19:06;;;;;;;3.80;1.43;;;;;;;11.81;58.53;100936.94;5031792;28;20470;-74
2023/05/17 03:21:31;;;;;;;3.77;1.20;;;;;;;11.81;58.60;100938.81;5031829;28;20405;-74
2023/05/17 03:23:57;;;;;;;4.13;1.30;;;;;;;11.71;58.57;100952.19;5020893;28;20407;-74
2023/05/17 03:26:22;;;;;;;2.47;1.58;;;;;;;11.64;58.85;100957.72;5031322;28;20480;-74
2023/05/17 03:28:48;;;;;;;3.97;1.40;;;;;;;11.68;58.76;100952.63;5031695;28;20399;-74
2023/05/17 03:31:13;;;;;;;2.47;1.53;;;;;;;11.66;59.03;100946.59;5031661;28;20505;-74
2023/05/17 03:33:39;;;;;;;5.60;1.30;;;;;;;11.66;59.00;100955.56;5022537;28;20420;-74
2023/05/17 03:36:04;;;;;;;3.70;1.30;;;;;;;11.67;58.86;100951.81;5024103;28;20912;-74
2023/05/17 03:38:29;;;;;;;2.63;1.37;;;;;;;11.63;59.28;100955.22;5031539;28;20434;-74
2023/05/17 03:40:55;;;;;;;2.93;1.40;;;;;;;11.64;59.36;100960.44;5031408;28;20728;-74
2023/05/17 03:43:20;;;;;;;15.30;11.47;;;;;;;11.69;59.12;100957.00;5030338;28;20411;-74
2023/05/17 03:45:46;;;;;;;3.80;1.70;;;;;;;11.71;59.22;100957.59;5019284;28;20422;-74
2023/05/17 03:48:11;;;;;;;6.33;1.53;;;;;;;11.72;59.60;100962.78;5062294;28;20395;-74
2023/05/17 03:50:39;;;;;;;4.17;1.57;;;;;;;11.72;59.54;100970.13;5028974;28;20904;-74
2023/05/17 03:53:05;;;;;;;4.80;1.42;;;;;;;11.71;59.53;100969.31;5031367;28;20406;-74
2023/05/17 03:55:30;;;;;;;2.17;1.23;;;;;;;11.69;59.55;100965.94;5024201;28;20424;-74
2023/05/17 03:57:55;;;;;;;2.70;1.30;;;;;;;11.68;59.95;100972.47;5025437;28;20482;-74
2023/05/17 04:00:21;;;;;;;1.60;1.03;;;;;;;11.68;60.18;100974.34;5031242;28;20395;-74
2023/05/17 04:02:50;;;;;;;3.00;1.27;;;;;;;11.66;60.12;100974.56;5031308;28;20509;-74
2023/05/17 04:05:16;;;;;;;5.05;1.15;;;;;;;11.50;60.08;100980.75;5028368;28;20443;-74
2023/05/17 04:07:41;;;;;;;2.37;1.27;;;;;;;11.42;60.57;100975.69;5027377;28;20810;-74
2023/05/17 04:10:06;;;;;;;1.83;1.50;;;;;;;11.52;60.00;100978.63;5031129;28;20842;-74
2023/05/17 04:12:32;;;;;;;3.27;1.43;;;;;;;11.59;60.44;100978.50;5029895;28;20801;-74
2023/05/17 04:14:58;;;;;;;5.50;1.27;;;;;;;11.63;60.44;100988.63;5030503;28;20905;-74
2023/05/17 04:17:23;;;;;;;3.88;1.50;;;;;;;11.66;60.43;100999.00;5031333;28;20449;-74
2023/05/17 04:19:48;;;;;;;3.57;1.37;;;;;;;11.67;60.36;100999.84;5029982;28;20399;-75
2023/05/17 04:22:14;;;;;;;13.23;1.63;;;;;;;11.69;60.23;100995.81;5029000;28;20441;-75
2023/05/17 04:24:39;;;;;;;3.10;1.40;;;;;;;11.74;60.13;100995.97;5025687;28;20407;-74
2023/05/17 04:27:05;;;;;;;4.93;1.77;;;;;;;11.77;60.01;101000.91;5030678;28;20411;-75
2023/05/17 04:29:31;;;;;;;2.20;1.42;;;;;;;11.79;60.19;101001.50;5031028;28;20435;-75
2023/05/17 04:31:56;;;;;;;1.38;1.27;;;;;;;11.82;60.12;101002.94;5031843;28;20474;-75
2023/05/17 04:34:22;;;;;;;2.03;1.10;;;;;;;11.82;60.15;101003.72;5030223;28;20404;-76
2023/05/17 04:36:48;;;;;;;3.97;1.30;;;;;;;11.81;60.25;101010.25;5023596;28;20426;-74
2023/05/17 04:39:13;;;;;;;4.33;1.23;;;;;;;11.77;60.47;101005.53;5029371;28;20495;-75
2023/05/17 04:41:39;;;;;;;4.87;1.83;;;;;;;11.73;60.77;101018.75;5031539;28;20502;-74
2023/05/17 04:44:06;;;;;;;3.27;1.37;;;;;;;11.74;61.03;101016.88;5034175;28;20414;-75
2023/05/17 04:46:31;;;;;;;4.18;1.35;;;;;;;11.75;61.01;101019.34;5034350;28;20391;-74
2023/05/17 04:48:56;;;;;;;4.55;2.08;;;;;;;11.76;61.31;101022.88;5033278;28;20774;-74
2023/05/17 04:54:58;;;;;;;4.32;1.50;;;;;;;11.79;61.42;101033.25;5042484;28;20432;-75
2023/05/17 04:57:24;;;;;;;3.92;1.60;;;;;;;11.78;61.58;101035.16;5035053;28;20439;-74
2023/05/17 04:59:49;;;;;;;5.60;1.80;;;;;;;11.80;61.65;101037.63;5036258;28;20407;-74
2023/05/17 05:02:15;;;;;;;6.18;1.60;;;;;;;11.81;61.98;101034.69;5034325;28;20457;-75
2023/05/17 05:04:40;;;;;;;2.73;1.50;;;;;;;11.83;62.16;101046.13;5032952;28;20392;-74
2023/05/17 05:07:05;;;;;;;2.33;1.73;;;;;;;11.84;62.42;101039.63;5046956;28;20753;-75
2023/05/17 05:09:31;;;;;;;3.50;1.27;;;;;;;11.86;62.48;101042.94;5036864;28;20414;-76
2023/05/17 05:11:56;;;;;;;4.47;1.60;;;;;;;11.90;62.42;101041.38;5034880;28;20466;-73
2023/05/17 05:14:21;;;;;;;3.13;1.40;;;;;;;11.94;62.46;101048.00;5032651;28;20473;-74
2023/05/17 05:16:46;;;;;;;5.67;1.63;;;;;;;11.99;62.48;101049.19;5033434;28;20437;-74
2023/05/17 05:19:12;;;;;;;4.67;2.30;;;;;;;12.03;62.12;101050.31;5031285;28;20422;-74
2023/05/17 05:21:39;;;;;;;5.10;1.50;;;;;;;12.04;61.91;101050.09;5034261;28;20413;-75
2023/05/17 05:24:05;;;;;;;6.00;2.20;;;;;;;12.07;61.93;101056.94;5033884;28;20824;-73
2023/05/17 05:26:30;;;;;;;4.13;2.07;;;;;;;12.10;62.04;101059.16;5028877;28;20446;-76
2023/05/17 05:28:56;;;;;;;5.10;1.90;;;;;;;12.14;62.03;101065.78;5036210;28;20405;-75
2023/05/17 05:31:21;;;;;;;6.43;1.93;;;;;;;12.16;61.83;101058.22;5034357;28;20387;-76
2023/05/17 05:33:46;;;;;;;5.63;2.00;;;;;;;12.19;62.02;101063.16;5034396;28;20739;-75
2023/05/17 05:36:12;;;;;;;3.13;1.77;;;;;;;12.23;62.15;101076.03;5033646;28;20403;-76
2023/05/17 05:38:37;;;;;;;3.55;1.67;;;;;;;12.27;62.41;101073.66;5033680;28;20822;-75
2023/05/17 05:41:02;;;;;;;3.53;2.10;;;;;;;12.30;62.53;101075.91;5033023;28;20878;-75
2023/05/17 05:43:28;;;;;;;14.27;3.50;;;;;;;12.29;62.25;101074.22;5034644;28;20403;-76
2023/05/17 05:45:53;;;;;;;7.57;2.93;;;;;;;12.29;62.25;101074.22;5035494;28;20418;-75
2023/05/17 05:48:18;;;;;;;9.47;2.63;;;;;;;12.36;61.87;101074.94;5033121;28;20415;-76
2023/05/17 05:50:43;;;;;;;7.70;3.33;;;;;;;12.38;61.99;101080.97;5033700;28;20529;-75
2023/05/17 05:53:10;;;;;;;7.23;3.00;;;;;;;12.45;61.67;101085.16;5033238;28;20413;-75
2023/05/17 05:55:38;;;;;;;6.78;2.72;;;;;;;12.58;61.42;101086.78;5029766;28;20465;-75
2023/05/17 05:58:04;;;;;;;8.97;3.20;;;;;;;12.64;61.20;101082.28;5016310;28;20405;-76
2023/05/17 06:00:29;;;;;;;6.93;3.20;;;;;;;12.75;60.59;101082.22;5032650;28;20383;-75
2023/05/17 06:02:56;;;;;;;5.33;2.80;;;;;;;12.88;60.21;101089.22;5042298;28;20405;-75
2023/05/17 06:05:21;;;;;;;8.40;3.30;;;;;;;12.94;60.30;101099.16;5030995;28;20414;-75
2023/05/17 06:07:46;;;;;;;10.38;3.20;;;;;;;12.95;60.00;101092.63;5032035;28;20766;-75
2023/05/17 06:10:12;;;;;;;7.13;3.20;;;;;;;12.96;60.09;101097.00;5033440;28;20425;-75
2023/05/17 06:12:37;;;;;;;5.47;2.93;;;;;;;13.07;59.85;101095.31;5033823;28;20870;-75
2023/05/17 06:15:02;;;;;;;6.50;2.90;;;;;;;13.17;59.36;101096.31;5033005;28;20435;-75
2023/05/17 06:17:28;;;;;;;6.50;3.00;;;;;;;13.22;59.13;101104.56;5035281;28;20423;-75
2023/05/17 06:19:53;;;;;;;9.63;3.50;;;;;;;13.33;59.28;101106.41;5033247;28;20410;-74
2023/05/17 06:22:19;;;;;;;5.68;2.85;;;;;;;13.31;59.04;101104.97;5038462;28;20946;-75
2023/05/17 06:24:44;;;;;;;3.53;2.83;;;;;;;13.32;58.97;101099.31;5033457;28;20406;-75
2023/05/17 06:27:09;;;;;;;7.53;2.70;;;;;;;13.41;58.86;101099.72;5037578;28;20401;-75
2023/05/17 06:29:35;;;;;;;6.60;3.00;;;;;;;13.54;58.37;101107.53;5037809;28;20750;-75
2023/05/17 06:32:00;;;;;;;11.63;3.50;;;;;;;13.59;58.22;101104.91;5030808;28;20414;-74
2023/05/17 06:34:25;;;;;;;5.53;2.90;;;;;;;13.61;58.08;101110.91;5033253;28;20420;-75
2023/05/17 06:36:51;;;;;;;8.03;3.43;;;;;;;13.57;57.46;101104.31;5033282;28;20395;-74
2023/05/17 06:39:16;;;;;;;7.03;2.80;;;;;;;13.52;56.94;101110.53;5033211;28;20387;-74
2023/05/17 06:41:41;;;;;;;9.37;3.13;;;;;;;13.33;56.95;101120.03;5032330;28;20745;-74
2023/05/17 06:44:07;;;;;;;8.57;3.07;;;;;;;13.31;56.93;101124.88;5032229;28;20426;-74
2023/05/17 06:46:32;;;;;;;5.97;2.50;;;;;;;13.34;56.67;101108.03;5024427;28;20901;-73
2023/05/17 06:48:57;;;;;;;7.23;3.20;;;;;;;13.29;56.35;101118.84;5032850;28;20423;-73
2023/05/17 06:51:22;;;;;;;7.47;3.20;;;;;;;13.30;56.48;101120.50;5027968;28;20980;-73
2023/05/17 06:53:49;;;;;;;5.03;3.17;;;;;;;13.28;56.79;101122.63;5031914;28;20881;-74
2023/05/17 06:56:14;;;;;;;8.55;3.58;;;;;;;13.23;56.72;101117.13;5029612;28;20403;-73
2023/05/17 06:58:40;;;;;;;5.97;3.25;;;;;;;13.26;57.18;101123.97;5027468;28;20541;-75
2023/05/17 07:01:08;;;;;;;5.88;3.10;;;;;;;13.32;56.57;101128.41;5030470;28;20413;-75
2023/05/17 07:03:34;;;;;;;7.57;3.37;;;;;;;13.36;57.01;101127.69;5037565;28;20406;-74
2023/05/17 07:06:00;;;;;;;7.35;2.90;;;;;;;13.41;56.64;101127.75;5028933;28;20410;-74
2023/05/17 07:08:25;;;;;;;7.75;3.08;;;;;;;13.43;56.61;101128.34;5031308;28;20397;-74
2023/05/17 07:10:51;;;;;;;8.57;3.10;;;;;;;13.48;56.22;101130.31;5029859;28;20434;-74
2023/05/17 07:13:16;;;;;;;5.15;2.55;;;;;;;13.58;56.38;101132.38;5032841;28;20391;-73
2023/05/17 07:15:42;;;;;;;5.50;2.67;;;;;;;13.69;55.77;101134.19;5029980;28;20898;-74
2023/05/17 07:18:07;;;;;;;6.30;2.63;;;;;;;13.83;55.37;101132.78;5032519;28;20390;-73
2023/05/17 07:20:32;;;;;;;3.90;2.53;;;;;;;13.73;54.79;101127.19;5026860;28;20443;-73
2023/05/17 07:22:58;;;;;;;7.87;3.13;;;;;;;13.64;54.50;101145.00;5033189;28;20813;-74
2023/05/17 07:25:23;;;;;;;5.90;2.85;;;;;;;13.64;54.05;101134.94;5031084;28;20397;-74
2023/05/17 07:27:49;;;;;;;5.97;2.30;;;;;;;13.68;54.05;101137.97;5031475;28;20474;-74
2023/05/17 07:31:06;;;;;;;;;;;;;;;;;;;;;
2023/05/17 07:33:33;;;;;;;5.50;2.58;;;;;;;13.75;53.56;101136.75;4996787;28;20415;-74
2023/05/17 07:35:59;;;;;;;7.28;2.78;;;;;;;13.82;52.96;101142.03;5023433;28;20462;-75
2023/05/17 07:38:24;;;;;;;5.37;2.80;;;;;;;13.86;53.44;101135.81;5033255;28;20445;-73
2023/05/17 07:40:50;;;;;;;4.30;2.50;;;;;;;14.00;53.05;101133.56;5030923;28;20434;-74
2023/05/17 07:43:15;;;;;;;3.97;2.47;;;;;;;14.12;52.49;101134.28;5030332;28;20430;-73
2023/05/17 07:45:42;;;;;;;4.17;2.40;;;;;;;14.35;52.49;101139.53;5031012;28;20757;-74
2023/05/17 07:48:07;;;;;;;7.65;2.92;;;;;;;14.52;51.84;101142.22;5031962;28;20399;-75
2023/05/17 07:50:33;;;;;;;6.13;2.90;;;;;;;14.59;51.09;101131.91;5031477;28;20990;-74
2023/05/17 07:52:58;;;;;;;5.23;2.33;;;;;;;14.70;51.28;101139.13;5032300;28;20395;-73
2023/05/17 07:55:23;;;;;;;5.60;2.70;;;;;;;14.82;50.54;101137.09;5032193;28;20423;-74
2023/05/17 07:57:48;;;;;;;7.80;2.30;;;;;;;14.87;51.11;101134.44;5032084;28;20723;-73
2023/05/17 08:00:15;;;;;;;6.70;2.60;;;;;;;14.89;50.77;101137.72;5032236;28;20411;-73
2023/05/17 08:02:40;;;;;;;5.30;2.67;;;;;;;14.91;50.76;101141.03;5036128;28;20395;-73
2023/05/17 08:05:07;;;;;;;6.10;2.63;;;;;;;15.02;50.49;101141.94;5036095;28;20489;-74
2023/05/17 08:07:32;;;;;;;4.35;2.55;;;;;;;15.04;50.14;101145.25;5035876;28;20400;-73
2023/05/17 08:09:57;;;;;;;5.80;3.07;;;;;;;14.96;49.38;101135.59;5035655;28;20723;-73
2023/05/17 08:12:23;;;;;;;7.60;3.00;;;;;;;14.90;49.61;101146.72;5033108;28;20406;-73
2023/05/17 08:14:48;;;;;;;6.73;3.20;;;;;;;14.81;49.42;101142.81;5035897;28;20778;-73
2023/05/17 08:17:13;;;;;;;7.53;3.00;;;;;;;14.74;49.88;101136.72;5035876;28;20433;-74
2023/05/17 08:19:38;;;;;;;5.07;3.27;;;;;;;14.71;50.35;101142.69;5036014;28;20410;-73
2023/05/17 08:22:04;;;;;;;5.70;2.83;;;;;;;14.64;50.31;101142.06;5049068;28;20870;-73
2023/05/17 08:24:29;;;;;;;5.53;2.80;;;;;;;14.65;49.81;101138.25;5040068;28;20405;-73
2023/05/17 08:26:55;;;;;;;7.27;2.80;;;;;;;14.67;50.02;101139.66;5043026;28;20473;-74
2023/05/17 08:29:20;;;;;;;9.07;2.75;;;;;;;14.49;50.18;101145.41;5049340;28;20425;-73
2023/05/17 08:31:45;;;;;;;8.50;3.03;;;;;;;14.33;50.47;101141.69;5039495;28;20435;-74
2023/05/17 08:34:11;;;;;;;11.18;3.70;;;;;;;14.28;50.91;101138.03;5035637;28;20403;-73
2023/05/17 08:36:36;;;;;;;4.07;2.67;;;;;;;14.31;50.85;101135.63;5035348;28;20410;-73
2023/05/17 08:39:02;;;;;;;6.13;2.93;;;;;;;14.45;51.05;101136.13;5024289;28;20407;-73
2023/05/17 08:41:28;;;;;;;6.40;3.50;;;;;;;14.88;50.07;101132.53;5033907;28;20446;-73
2023/05/17 08:43:55;;;;;;;5.13;2.77;;;;;;;15.20;48.67;101133.38;5035439;28;20429;-75
2023/05/17 08:46:22;;;;;;;7.72;3.40;;;;;;;15.51;48.23;101124.38;5033015;28;20399;-74
2023/05/17 08:48:52;;;;;;;9.98;3.42;;;;;;;15.83;47.37;101123.53;5035186;28;20418;-74
2023/05/17 08:51:21;;;;;;;10.52;3.17;;;;;;;16.16;46.91;101122.38;5032750;28;20410;-74
2023/05/17 08:53:49;;;;;;;11.65;10.35;;;;;;;16.42;46.27;101124.13;5033943;28;20992;-74
2023/05/17 08:56:16;;;;;;;88.87;55.33;;;;;;;16.69;45.63;101126.72;5033851;28;20871;-74
2023/05/17 08:58:42;;;;;;;1999.90;533.28;;;;;;;16.81;45.05;101119.09;5035048;28;20431;-75
2023/05/17 09:01:12;;;;;;;1999.90;612.37;;;;;;;16.90;45.07;101118.28;5034165;28;20411;-75
2023/05/17 09:03:41;;;;;;;1999.90;959.13;;;;;;;16.91;44.65;101124.59;5033679;28;20757;-74
2023/05/17 09:06:08;;;;;;;1999.90;897.50;;;;;;;17.07;44.81;101124.34;5033572;28;20406;-75
2023/05/17 09:08:35;;;;;;;1999.90;374.33;;;;;;;17.42;43.99;101118.06;5034770;28;20403;-75
2023/05/17 09:11:00;;;;;;;1999.90;999.90;;;;;;;17.72;43.33;101120.00;5034886;28;20410;-75
2023/05/17 09:13:26;;;;;;;1999.90;999.90;;;;;;;17.88;43.10;101116.13;5034627;28;20921;-75
2023/05/17 09:15:52;;;;;;;1999.90;999.90;;;;;;;17.70;43.49;101122.19;5034651;28;20810;-74
2023/05/17 09:18:18;;;;;;;1999.90;999.90;;;;;;;17.35;44.11;101114.78;5034840;28;20383;-74
2023/05/17 09:20:49;;;;;;;1999.90;999.90;;;;;;;17.03;44.53;101116.94;5035112;28;20928;-75
2023/05/17 09:23:19;;;;;;;1999.90;999.90;;;;;;;16.90;44.59;101123.75;5033331;28;20954;-74
2023/05/17 09:25:48;;;;;;;1999.90;999.90;;;;;;;16.63;44.50;101128.59;5034502;28;20482;-74
2023/05/17 09:28:13;;;;;;;1999.90;999.90;;;;;;;16.37;44.30;101126.81;5034159;28;20470;-74
2023/05/17 09:30:40;;;;;;;1999.90;999.90;;;;;;;16.35;44.32;101129.03;5034617;28;20881;-75
2023/05/17 09:33:06;;;;;;;1999.90;999.90;;;;;;;16.91;44.15;101124.59;5034067;28;20411;-75
2023/05/17 09:35:33;;;;;;;1999.90;999.90;;;;;;;17.17;43.32;101122.72;5032912;28;20411;-75
2023/05/17 09:38:10;;;;;;;1999.90;999.90;;;;;;;17.49;42.96;101135.06;5032845;28;20388;-74
2023/05/17 09:40:46;;;;;;;1999.90;999.90;;;;;;;17.23;43.41;101129.81;5033337;28;20411;-74
2023/05/17 09:43:12;;;;;;;1999.90;999.90;;;;;;;16.96;43.74;101124.59;5034149;28;20414;-75
2023/05/17 09:45:38;;;;;;;1999.90;999.90;;;;;;;16.69;44.41;101130.28;5034136;28;20398;-74
2023/05/17 09:48:16;;;;;;;1999.90;999.90;;;;;;;16.46;44.43;101131.53;5032864;28;20411;-74
2023/05/17 09:50:49;;;;;;;1999.90;999.90;;;;;;;16.35;45.12;101138.06;5018212;28;21005;-75
2023/05/17 09:53:52;;;;;;;1999.90;999.90;;;;;;;17.36;44.80;101138.34;5034021;28;20908;-74
2023/05/17 09:56:21;;;;;;;1999.90;999.90;;;;;;;18.78;41.47;101129.81;5016108;28;20400;-74
2023/05/17 09:58:48;;;;;;;1999.90;999.90;;;;;;;18.18;42.12;101128.16;5028851;28;20395;-74
2023/05/17 10:01:14;;;;;;;1999.90;999.90;;;;;;;17.50;43.18;101128.47;5032122;28;20433;-74
2023/05/17 10:03:39;;;;;;;1999.90;999.90;;;;;;;17.01;43.89;101128.19;5033735;28;20395;-75
2023/05/17 10:06:07;;;;;;;1999.90;999.90;;;;;;;16.72;44.73;101139.88;5034513;28;20394;-74
2023/05/17 10:08:33;;;;;;;1999.90;999.90;;;;;;;16.51;45.17;101144.41;5033721;28;20402;-75
2023/05/17 10:11:09;;;;;;;1999.90;999.90;;;;;;;16.45;45.44;101137.28;5033257;28;20407;-75
2023/05/17 10:13:48;;;;;;;1999.90;999.90;;;;;;;16.29;45.68;101132.81;5032273;28;20470;-74
2023/05/17 10:16:13;;;;;;;1999.90;999.90;;;;;;;16.29;45.72;101128.19;5033326;28;20876;-75
2023/05/17 10:18:39;;;;;;;1999.90;999.90;;;;;;;16.34;45.52;101130.94;5033535;28;20908;-74
2023/05/17 10:21:06;;;;;;;1999.90;999.90;;;;;;;16.60;45.38;101127.22;5032907;28;20429;-74
2023/05/17 10:23:33;;;;;;;1999.90;999.90;;;;;;;16.72;45.14;101129.75;5030948;28;20478;-75
2023/05/17 10:25:59;;;;;;;1999.90;999.90;;;;;;;16.66;45.31;101132.75;5031088;28;20424;-75
2023/05/17 10:28:27;;;;;;;1999.90;999.90;;;;;;;16.65;45.48;101126.44;5030680;28;20762;-75
2023/05/17 10:30:53;;;;;;;1999.90;999.90;;;;;;;16.64;45.46;101126.69;5022017;28;20411;-74
2023/05/17 10:33:20;;;;;;;1999.90;999.90;;;;;;;16.50;44.93;101123.59;5034241;28;20831;-75
2023/05/17 10:35:48;;;;;;;1999.90;999.90;;;;;;;16.51;45.04;101128.00;5036954;28;20420;-75
2023/05/17 10:38:13;;;;;;;1999.90;999.90;;;;;;;16.59;45.31;101133.81;5037626;28;20442;-75
2023/05/17 10:40:41;;;;;;;1999.90;999.90;;;;;;;16.69;45.16;101130.28;5037511;28;20387;-74
2023/05/17 10:43:08;;;;;;;1999.90;999.90;;;;;;;16.78;45.05;101125.94;5032372;28;21020;-75
2023/05/17 10:45:35;;;;;;;1999.90;999.90;;;;;;;16.83;44.79;101136.88;5033926;28;20740;-74
2023/05/17 10:48:04;;;;;;;1999.90;999.90;;;;;;;16.81;44.79;101136.34;5031730;28;20436;-75
2023/05/17 10:50:30;;;;;;;1999.90;999.90;;;;;;;16.84;44.86;101137.72;5032585;28;20403;-75
2023/05/17 10:52:58;;;;;;;1999.90;999.90;;;;;;;16.95;44.99;101139.38;5032458;28;20413;-77
2023/05/17 10:55:35;;;;;;;1999.90;999.90;;;;;;;17.00;44.82;101139.38;5034763;28;21013;-77
2023/05/17 10:58:20;;;;;;;1999.90;999.90;;;;;;;16.88;44.72;101150.59;5033329;28;20407;-75
2023/05/17 11:00:48;;;;;;;1999.90;999.90;;;;;;;16.77;45.07;101142.59;5033182;28;20399;-75
2023/05/17 11:03:16;;;;;;;1999.90;999.90;;;;;;;16.72;45.14;101146.16;5039264;28;20471;-74
2023/05/17 11:05:44;;;;;;;1999.90;999.90;;;;;;;16.72;45.01;101140.69;5030858;28;20407;-75
2023/05/17 11:08:16;;;;;;;1999.90;999.90;;;;;;;16.74;44.83;101137.69;5030223;28;20403;-75
2023/05/17 11:11:10;;;;;;;1999.90;999.90;;;;;;;16.66;44.79;101144.50;5032302;28;20452;-75
2023/05/17 11:13:45;;;;;;;1999.90;999.90;;;;;;;16.61;45.18;101147.22;5031702;28;20423;-74
2023/05/17 11:16:14;;;;;;;1999.90;999.90;;;;;;;16.55;45.18;101143.66;5030591;28;20457;-74
2023/05/17 11:18:52;;;;;;;1999.90;999.90;;;;;;;16.47;45.25;101141.38;5032997;28;21243;-74
2023/05/17 11:21:18;;;;;;;1999.90;999.90;;;;;;;16.46;45.18;101147.97;5023036;28;20488;-75